PRINT OUT SECTION, show »

METAR EPBY 160830Z 24017KT 9999 SCT026CB BKN044 08/02 Q0997=

METAR EPGD 160830Z 25012KT 7000 -RASN SCT004 BKN007 02/01 Q0993 =

METAR EPKK 160830Z 26011KT 9999 FEW030 SCT040 08/01 Q1003 =

METAR EPKT 160830Z 26018KT 9999 FEW038 07/M01 Q1003 =

METAR EPLB 160830Z 27017KT 9999 FEW025 SCT030 10/05 Q1000 =

METAR EPLL 160830Z 26021KT 9999 SCT034 BKN038 07/M01 Q1000 =

METAR EPML 160830Z AUTO 27014KT 9999 BKN044/// 09/03 Q////=

METAR EPMO 160830Z 25018KT 9999 SCT031 BKN040 08/02 Q0998 =

METAR EPPO 160830Z 23013G23KT 9999 BKN026 07/02 Q0999 =

METAR EPRA 160830Z 28014G24KT 9999 SCT032 08/02 Q1001=

METAR EPRZ 160830Z 25013KT 9999 FEW020 SCT040CB 11/08 Q1001 =

METAR EPSC 160830Z 25012KT 210V270 9999 -SHRA FEW014TCU OVC016 06/04
Q0996 =

METAR EPSY 160830Z 24011KT 210V280 4000 -RA BR SCT002 SCT006 BKN008
05/04 Q0996=

METAR EPWA 160830Z 26019KT 9999 BKN033 08/01 Q0999 NOSIG=

METAR EPWR 160830Z 27018KT 9999 FEW040 10/00 Q1002 =

METAR EPZG 160830Z 23016KT 9999 BKN031 OVC046 08/03 Q1000 =
 METAR EPRZ
Lokalizacja:EPRZ Rzeszów Jasionka
Czas:08:30 UTC
Średni kierunek wiatru:250 °
Średnia prędkość wiatru:13 węzłów
Widzialność:10 km i więcej
Pierwsza warstwa chmur:1/8 do 2/8, wysokość podstawy 2000 FT
Druga warstwa chmur:3/8 do 4/8, wysokość podstawy 4000 FT
Chmury konwekcyjne :cumulonimbus
Temperatura powietrza:11 °C
Temperatura punktu rosy:8 °C
Ciśnienie QNH:1001 hPa